• Join FlightAware (Why Join?)
  • Login
  • US Flag 
06:04PM EDT


 

Airport Tracker/Info


-or-


 

Live Flight TrackerFlight Track Log ✈ AWE3286 ✈ 03-May-2014 ✈ KCLT - KBDL

Flight Track Log - Related Links

Times and Time Zones

All times are in EDT time to prevent confusion due to time zone crossing. See the AWE3286 flight status page for this flight to view local times or setup timezone preferences in your user account.

Time Position Orientation Groundspeed Altitude Reporting Facility
EDT Latitude Longitude Course Direction KTS MPH feet Rate Location/Type
10:24AM 35.2306 -80.9392 North 153 176 1,500  Level Atlanta Center
10:25AM 35.2964 -80.9011 25° Northeast 218 251 4,200 1,860 Climbing Atlanta Center
10:26AM 35.1000 -80.6599 90° East  Level FlightAware Approximate
10:26AM 35.2983 -80.8961 65° Northeast 229 264 4,600  Level Atlanta Center
10:26AM 35.2964 -80.8172 92° East 262 302 6,200 1,920 Climbing Atlanta Center
10:27AM 35.1672 -80.5885 29° Northeast  Level FlightAware Approximate
10:27AM 35.2919 -80.7283 93° East 288 331 8,000  Level Atlanta Center
10:28AM 35.2527 -80.5291 30° Northeast  Level FlightAware Approximate
10:28AM 35.2994 -80.6236 85° East 295 339 8,800  Level Atlanta Center
10:29AM 35.3273 -80.4667 North  Level FlightAware Approximate
10:29AM 35.3217 -80.5236 75° East 295 339 10,600  Level Atlanta Center
10:30AM 35.3536 -80.4050 72° East 318 366 12,000 1,680 Climbing Atlanta Center
10:32AM 35.4139 -80.2075 69° East 414 476 15,100 1,800 Climbing Washington Center
10:33AM 35.4481 -80.0769 72° East 398 458 16,800 1,560 Climbing Washington Center
10:34AM 35.4797 -79.9561 72° East 398 458 18,300 1,440 Climbing Washington Center
10:35AM 35.5161 -79.8153 72° East 412 474 19,700 1,200 Climbing Washington Center
10:36AM 35.5522 -79.6742 73° East 423 487 20,800 1,260 Climbing Washington Center
10:37AM 35.5956 -79.5053 72° East 456 525 22,200 1,020 Climbing Washington Center
10:38AM 35.6372 -79.3744 69° East 456 525 22,900 900 Climbing Washington Center
10:39AM 35.6983 -79.2239 63° Northeast 469 540 24,100 960 Climbing Washington Center
10:40AM 35.7592 -79.0706 64° Northeast 479 551 24,900 1,080 Climbing Washington Center
10:41AM 35.8242 -78.9147 63° Northeast 491 565 26,300 1,560 Climbing Washington Center
10:42AM 35.8867 -78.7608 63° Northeast 496 571 28,000 1,440 Climbing Washington Center
10:43AM 35.9617 -78.6072 59° Northeast 502 578 29,300 1,140 Climbing Washington Center
10:44AM 36.0428 -78.4408 59° Northeast 507 583 30,400 1,020 Climbing Washington Center
10:45AM 36.1197 -78.2817 59° Northeast 519 597 31,400 1,080 Climbing Washington Center
10:46AM 36.1961 -78.1194 60° Northeast 531 611 32,600 1,140 Climbing Washington Center
10:47AM 36.2725 -77.9597 59° Northeast 531 611 33,700 1,020 Climbing Washington Center
10:48AM 36.3464 -77.8044 59° Northeast 525 604 34,700 600 Climbing Washington Center
10:49AM 36.4200 -77.6492 59° Northeast 525 604 35,000 120 Climbing Washington Center
10:50AM 36.4914 -77.4933 60° Northeast 519 597 35,000  Level Washington Center
10:51AM 36.5628 -77.3400 60° Northeast 519 597 35,000  Level Washington Center
10:52AM 36.6336 -77.1839 60° Northeast 519 597 35,000  Level Washington Center
10:53AM 36.7067 -77.0325 59° Northeast 519 597 35,000  Level Washington Center
10:54AM 36.8183 -76.9178 39° Northeast 508 585 35,000  Level Washington Center
10:55AM 36.9322 -76.8158 36° Northeast 491 565 35,000  Level Washington Center
10:56AM 37.0458 -76.7133 36° Northeast 502 578 35,000  Level Washington Center
10:57AM 37.1594 -76.6083 36° Northeast 507 583 35,000  Level Washington Center
10:58AM 37.2644 -76.5156 35° Northeast 512 589 35,000  Level Washington Center
10:59AM 37.3778 -76.4100 36° Northeast 512 589 35,000  Level Washington Center
11:00AM 37.4933 -76.3039 36° Northeast 512 589 35,000  Level Washington Center
11:01AM 37.6086 -76.2000 36° Northeast 512 589 35,000  Level Washington Center
11:02AM 37.7258 -76.1011 34° Northeast 512 589 35,000  Level Washington Center
11:03AM 37.8367 -75.9861 39° Northeast 512 589 35,000  Level Washington Center
11:04AM 37.9517 -75.8789 36° Northeast 512 589 35,000  Level Washington Center
11:05AM 38.0644 -75.7736 36° Northeast 506 582 35,000  Level Washington Center
11:06AM 38.1794 -75.6658 36° Northeast 506 582 35,000  Level Washington Center
11:07AM 38.2942 -75.5572 37° Northeast 511 588 35,000  Level Washington Center
11:08AM 38.4233 -75.4433 35° Northeast 511 588 35,000  Level Washington Center
11:09AM 38.5419 -75.3394 34° Northeast 511 588 35,000  Level Washington Center
11:10AM 38.6606 -75.2408 33° Northeast 511 588 35,000  Level Washington Center
11:11AM 38.7686 -75.1444 35° Northeast 516 594 35,000  Level Washington Center
11:12AM 38.8869 -75.0394 35° Northeast 516 594 35,000  Level Washington Center
11:13AM 39.0031 -74.9397 34° Northeast 511 588 35,000  Level Washington Center
11:14AM 39.1214 -74.8344 35° Northeast 511 588 35,000  Level Washington Center
11:15AM 39.2394 -74.7286 35° Northeast 511 588 35,000  Level Washington Center
11:16AM 39.3575 -74.6225 35° Northeast 516 594 35,000  Level Washington Center
11:17AM 39.4753 -74.5161 35° Northeast 516 594 35,000  Level Washington Center
11:18AM 39.6417 -74.3697 34° Northeast 518 596 35,000 -1,020 Level New York Center
11:19AM 39.7575 -74.2622 35° Northeast 518 596 32,700 -2,580 Descending New York Center
11:20AM 39.8775 -74.1519 35° Northeast 518 596 29,900 -2,700 Descending New York Center
11:21AM 39.9931 -74.0467 35° Northeast 518 596 27,200 -2,520 Descending New York Center
11:22AM 40.1086 -73.9408 35° Northeast 507 583 25,000 -1,140 Descending New York Center
11:23AM 40.2175 -73.8397 35° Northeast 502 578 25,000  Level New York Center
11:24AM 40.3369 -73.7308 35° Northeast 491 565 25,000 -360 Level New York Center
11:27AM 40.5594 -73.5211 36° Northeast 477 549 24,000 -1,080 Descending Boston Center
11:28AM 40.6633 -73.4239 35° Northeast 461 531 21,600 -2,460 Descending Boston Center
11:29AM 40.7794 -73.3142 36° Northeast 443 510 19,000 -1,320 Descending Boston Center
11:30AM 40.8644 -73.2192 40° Northeast 408 470 19,000 -540 Level Boston Center
11:31AM 40.9461 -73.1233 42° Northeast 395 455 18,000 -1,020 Descending Boston Center
11:32AM 41.0281 -73.0283 41° Northeast 393 452 17,000 -1,020 Descending Boston Center
11:33AM 41.1078 -72.9350 41° Northeast 383 441 15,900 -1,560 Descending Boston Center
11:33AM 41.1425 -72.8942 42° Northeast 374 430 14,900 -2,340 Descending Boston Center
11:34AM 41.1825 -72.8458 42° Northeast 369 425 13,900 -1,980 Descending Boston Center
11:35AM 41.2567 -72.7578 42° Northeast 359 413 11,900 -1,500 Descending Boston Center
11:36AM 41.3439 -72.7317 13° North 302 348 10,900 -960 Descending Boston Center
11:37AM 41.4328 -72.7089 11° North 320 368 10,000 -1,140 Descending Boston Center
11:38AM 41.5086 -72.6642 24° Northeast 295 339 8,700 -1,380 Descending Boston Center
11:38AM 41.5219 -72.6578 20° North 299 344 8,400 -1,740 Descending Boston Center
11:38AM 41.5667 -72.6331 22° Northeast 286 329 7,300 -1,800 Descending Boston Center
11:39AM 41.5942 -72.6178 23° Northeast 285 328 6,600 -1,680 Descending Boston Center
11:39AM 41.6375 -72.5922 24° Northeast 279 321 5,600 -1,620 Descending Boston Center
11:40AM 41.6656 -72.5778 21° North 282 325 5,000 -900 Descending Boston Center
11:40AM 41.7111 -72.5581 18° North 261 300 4,700 -720 Descending Boston Center
11:41AM 41.7422 -72.5531 North 267 307 4,300 -1,440 Descending Boston Center
11:41AM 41.7869 -72.5447 North 271 312 3,300 -1,260 Descending Boston Center
11:42AM 41.8142 -72.5411 North 264 304 3,000 -780 Descending Boston Center
11:43AM 41.8456 -72.5656 330° Northwest 217 250 2,500 -900 Descending Boston Center
11:43AM 41.8636 -72.5861 320° Northwest 221 254 2,100 -1,020 Descending Boston Center
11:44AM 41.8833 -72.6136 314° West 174 200 1,500 -900 Descending Boston Center
11:44AM 41.8947 -72.6281 317° Northwest 161 185 1,200 -780 Descending Boston Center
11:44AM 41.9086 -72.6486 312° West 128 147 800 -840 Descending Boston Center
11:45AM 41.9236 -72.6672 317° Northwest 142 163 400 -780 Descending Boston Center
11:47AM 41.9333 -72.6833 45° Northeast  Level FlightAware Approximate
11:54AM 41.9392 -72.6834 45° Northeast  Level Estimated
11:55AM 41.9333 -72.6833 45° Northeast  Level FlightAware Approximate